Time;durP1;ratioP1;P1;durP2;ratioP2;P2;SDS_P1;SDS_P2;PMS_P1;PMS_P2;Temp;Humidity;BMP_temperature;BMP_pressure;BME280_temperature;BME280_humidity;BME280_pressure;Samples;Min_cycle;Max_cycle;Signal;HPM_P1;HPM_P2
2021/09/14 00:02:13;;;;;;;4.78;1.60;;;;;;;21.30;52.46;101798.75;4726225;30;20028;-93
2021/09/14 00:04:38;;;;;;;3.92;1.60;;;;;;;21.31;52.23;101803.09;4726416;30;20042;-93
2021/09/14 00:07:04;;;;;;;3.10;1.90;;;;;;;21.29;52.17;101797.00;4712047;30;20153;-94
2021/09/14 00:09:30;;;;;;;4.93;1.50;;;;;;;21.28;52.54;101797.91;4711852;30;20059;-93
2021/09/14 00:11:56;;;;;;;2.63;1.55;;;;;;;21.27;52.21;101793.53;4740769;30;20032;-93
2021/09/14 00:14:21;;;;;;;3.40;1.60;;;;;;;21.27;52.52;101790.91;4744771;30;20189;-92
2021/09/14 00:16:47;;;;;;;3.50;1.40;;;;;;;21.29;52.39;101799.63;4719644;30;20036;-92
2021/09/14 00:19:15;;;;;;;5.00;1.63;;;;;;;21.29;52.24;101800.47;4742848;30;20032;-93
2021/09/14 00:21:40;;;;;;;3.67;1.60;;;;;;;21.31;52.57;101798.72;4740900;30;20463;-94
2021/09/14 00:24:06;;;;;;;4.22;1.75;;;;;;;21.29;52.20;101794.38;4740920;30;20067;-95
2021/09/14 00:26:31;;;;;;;4.90;1.60;;;;;;;21.29;52.71;101797.00;4734482;30;20053;-94
2021/09/14 00:28:57;;;;;;;3.47;1.25;;;;;;;21.29;52.61;101794.38;4694896;30;20131;-94
2021/09/14 00:31:22;;;;;;;4.85;1.98;;;;;;;21.27;52.40;101798.78;4697588;30;20040;-92
2021/09/14 00:33:48;;;;;;;3.70;1.92;;;;;;;21.24;52.51;101801.44;4712401;30;20041;-94
2021/09/14 00:36:13;;;;;;;4.22;2.08;;;;;;;21.23;52.59;101795.34;4724812;30;20017;-93
2021/09/14 00:38:38;;;;;;;3.63;1.88;;;;;;;21.24;52.59;101797.06;4701175;30;20468;-93
2021/09/14 00:41:04;;;;;;;2.95;1.58;;;;;;;21.26;52.65;101797.03;4711862;30;20039;-94
2021/09/14 00:43:29;;;;;;;4.35;1.85;;;;;;;21.23;52.54;101795.34;4730323;30;20040;-92
2021/09/14 00:45:55;;;;;;;3.33;1.58;;;;;;;21.26;52.44;101794.44;4725720;30;20032;-94
2021/09/14 00:48:20;;;;;;;2.55;1.65;;;;;;;21.27;52.20;101796.16;4728242;30;20447;-91
2021/09/14 00:50:46;;;;;;;4.13;1.70;;;;;;;21.29;52.36;101795.25;4716636;30;20033;-93
2021/09/14 00:53:12;;;;;;;2.42;1.35;;;;;;;21.30;52.41;101793.53;4730410;30;20040;-93
2021/09/14 00:55:38;;;;;;;4.50;1.70;;;;;;;21.29;52.72;101792.63;4727631;30;20048;-94
2021/09/14 00:58:03;;;;;;;4.22;1.52;;;;;;;21.29;52.51;101791.78;4709183;30;20477;-93
2021/09/14 01:00:29;;;;;;;2.88;1.45;;;;;;;21.27;52.44;101786.53;4709074;30;20511;-93
2021/09/14 01:02:55;;;;;;;2.30;1.40;;;;;;;21.29;52.56;101778.69;4739966;30;20032;-93
2021/09/14 01:05:20;;;;;;;2.90;1.67;;;;;;;21.30;52.61;101783.06;4726380;30;20032;-94
2021/09/14 01:07:48;;;;;;;2.60;1.50;;;;;;;21.29;52.61;101784.78;4723905;30;20044;-94
2021/09/14 01:10:14;;;;;;;2.83;1.50;;;;;;;21.31;52.77;101790.00;4722817;30;20029;-94
2021/09/14 01:12:40;;;;;;;2.90;1.52;;;;;;;21.31;52.71;101782.16;4722944;30;20032;-94
2021/09/14 01:15:06;;;;;;;1.90;1.27;;;;;;;21.32;52.41;101797.00;4724268;30;20033;-94
2021/09/14 01:17:32;;;;;;;1.95;1.42;;;;;;;21.29;52.70;101789.16;4724479;30;20043;-94
2021/09/14 01:19:58;;;;;;;2.80;1.77;;;;;;;21.26;52.79;101783.97;4724263;30;20383;-93
2021/09/14 01:22:31;;;;;;;2.92;1.73;;;;;;;21.24;52.76;101775.25;4694715;30;20164;-94
2021/09/14 01:24:57;;;;;;;;;;;;;;;21.23;52.63;101774.41;4724009;30;20060;-94
2021/09/14 01:27:23;;;;;;;2.17;1.42;;;;;;;21.25;52.73;101772.63;4724091;30;20362;-93
2021/09/14 01:32:32;;;;;;;2.92;1.60;;;;;;;21.21;52.64;101770.91;4738151;30;20047;-94
2021/09/14 01:35:28;;;;;;;3.10;1.70;;;;;;;21.20;52.54;101769.16;4707676;30;20032;-94
2021/09/14 01:37:54;;;;;;;3.30;1.42;;;;;;;21.21;52.68;101768.31;4714918;30;20037;-94
2021/09/14 01:40:20;;;;;;;6.43;1.70;;;;;;;21.22;52.69;101767.41;4722840;30;20115;-94
2021/09/14 01:42:46;;;;;;;2.33;1.30;;;;;;;21.21;52.83;101764.78;4722459;30;20040;-94
2021/09/14 01:45:12;;;;;;;2.63;1.60;;;;;;;21.22;52.72;101770.03;4722099;30;20025;-94
2021/09/14 01:47:39;;;;;;;3.10;1.50;;;;;;;21.21;52.86;101764.78;4708223;30;20063;-94
2021/09/14 01:50:07;;;;;;;1.90;1.25;;;;;;;21.23;53.08;101773.50;4728342;30;20032;-94
2021/09/14 01:52:33;;;;;;;4.28;1.52;;;;;;;21.20;52.91;101765.69;4729529;30;20430;-94
2021/09/14 01:55:11;;;;;;;2.72;1.40;;;;;;;21.22;52.60;101767.41;4715602;30;20441;-94
2021/09/14 01:57:38;;;;;;;2.80;1.50;;;;;;;21.19;52.77;101763.94;4730669;30;20033;-94
2021/09/14 02:00:17;;;;;;;3.28;1.60;;;;;;;21.16;52.89;101759.59;4724610;30;20029;-94
2021/09/14 02:05:20;;;;;;;2.22;1.42;;;;;;;21.23;53.00;101756.06;4709018;30;20068;-94
2021/09/14 03:00:52;;;;;;;4.18;2.80;;;;;;;21.03;52.82;101703.03;4740034;30;20063;-90
2021/09/14 03:03:18;;;;;;;3.65;2.42;;;;;;;21.06;52.90;101695.19;4722689;30;20033;-90
2021/09/14 03:05:43;;;;;;;5.18;2.30;;;;;;;21.06;53.03;101695.19;4722658;30;20039;-89
2021/09/14 03:08:08;;;;;;;3.53;1.65;;;;;;;21.11;52.77;101703.84;4708116;30;20567;-90
2021/09/14 03:10:34;;;;;;;5.95;1.98;;;;;;;21.13;52.95;101695.06;4722665;30;20036;-90
2021/09/14 03:13:00;;;;;;;4.72;2.00;;;;;;;21.15;52.70;101692.44;4724896;30;20036;-89
2021/09/14 03:15:25;;;;;;;3.63;2.20;;;;;;;21.15;52.71;101693.31;4741797;30;20130;-90
2021/09/14 03:17:51;;;;;;;2.75;1.95;;;;;;;21.16;52.73;101691.56;4724621;30;20043;-90
2021/09/14 03:20:16;;;;;;;2.90;2.20;;;;;;;21.12;52.57;101689.84;4728722;30;20041;-90
2021/09/14 03:22:42;;;;;;;2.50;1.88;;;;;;;21.12;52.85;101690.75;4739034;30;20420;-90
2021/09/14 03:25:07;;;;;;;4.35;2.13;;;;;;;21.09;52.81;101685.53;4723204;30;20087;-89
2021/09/14 03:27:34;;;;;;;4.22;2.00;;;;;;;21.11;52.70;101677.66;4734232;30;20500;-90
2021/09/14 03:30:00;;;;;;;3.50;2.25;;;;;;;21.12;52.82;101677.66;4691333;30;20127;-89
2021/09/14 03:32:25;;;;;;;3.17;1.80;;;;;;;21.13;52.62;101676.75;4704856;30;20635;-90
2021/09/14 03:34:50;;;;;;;3.83;1.90;;;;;;;21.15;52.76;101671.50;4704906;30;20488;-91
2021/09/14 03:37:16;;;;;;;3.35;2.20;;;;;;;21.13;52.76;101665.44;4706095;30;20029;-94
2021/09/14 03:39:41;;;;;;;2.95;2.30;;;;;;;21.10;52.84;101666.34;4706526;30;20495;-94
2021/09/14 03:42:07;;;;;;;4.32;2.58;;;;;;;21.09;52.73;101664.59;4707617;30;20037;-94
2021/09/14 03:44:32;;;;;;;3.08;2.20;;;;;;;21.11;52.61;101652.34;4720302;30;20400;-94
2021/09/14 03:46:58;;;;;;;4.25;2.20;;;;;;;21.11;52.61;101647.13;4706016;30;20055;-94
2021/09/14 03:49:23;;;;;;;3.45;2.30;;;;;;;21.14;52.67;101646.22;4692009;30;20141;-94
2021/09/14 03:51:48;;;;;;;3.47;2.08;;;;;;;21.11;52.93;101643.63;4705994;30;20458;-94
2021/09/14 03:54:14;;;;;;;3.60;2.47;;;;;;;21.07;52.86;101644.56;4692228;30;20033;-91
2021/09/14 03:56:39;;;;;;;2.95;2.63;;;;;;;21.02;53.06;101638.53;4735628;30;20028;-90
2021/09/14 03:59:05;;;;;;;6.15;2.90;;;;;;;21.00;52.84;101638.53;4720078;30;20036;-90
2021/09/14 04:01:34;;;;;;;5.25;2.95;;;;;;;21.01;52.85;101642.00;4705349;30;20077;-90
2021/09/14 04:04:04;;;;;;;5.32;2.50;;;;;;;20.98;52.92;101640.28;4719327;30;20039;-90
2021/09/14 04:06:55;;;;;;;3.95;2.60;;;;;;;21.00;52.95;101638.53;4719816;30;20037;-88
2021/09/14 04:09:20;;;;;;;3.63;2.67;;;;;;;21.02;52.90;101642.00;4707443;30;20036;-89
2021/09/14 04:11:48;;;;;;;5.32;3.15;;;;;;;20.98;52.70;101645.53;4704556;30;20033;-89
2021/09/14 04:14:14;;;;;;;6.40;3.03;;;;;;;20.95;53.02;101646.44;4691315;30;20041;-90
2021/09/14 04:16:39;;;;;;;7.70;3.13;;;;;;;20.95;53.06;101645.56;4719097;30;20031;-90
2021/09/14 04:19:04;;;;;;;4.53;2.85;;;;;;;20.94;53.08;101642.06;4719403;30;20122;-89
2021/09/14 04:21:30;;;;;;;3.95;2.83;;;;;;;20.98;53.01;101642.91;4719428;30;20033;-88
2021/09/14 04:23:55;;;;;;;3.25;2.30;;;;;;;20.99;52.89;101636.81;4690338;30;20032;-90
2021/09/14 04:29:56;;;;;;;4.20;2.42;;;;;;;21.01;52.78;101642.88;4754073;30;20054;-87
2021/09/14 04:32:24;;;;;;;4.57;2.38;;;;;;;21.02;53.06;101639.38;4710550;30;20048;-83
2021/09/14 04:35:59;;;;;;;3.38;2.42;;;;;;;21.00;52.94;101646.38;4739597;30;20507;-91
2021/09/14 04:38:48;;;;;;;4.28;2.25;;;;;;;21.01;52.94;101642.88;4718173;30;20130;-88
2021/09/14 04:44:43;;;;;;;4.32;2.40;;;;;;;21.00;52.89;101642.91;4717783;30;20056;-90
2021/09/14 04:47:38;;;;;;;;;;;;;;;21.01;52.92;101636.75;4718548;30;20093;-90
2021/09/14 04:51:12;;;;;;;;;;;;;;;21.06;52.88;101635.84;4671905;30;19915;-91
2021/09/14 04:53:18;;;;;;;3.55;2.08;;;;;;;21.04;53.15;101632.38;4693731;30;19979;-88
2021/09/14 04:55:43;;;;;;;2.80;2.00;;;;;;;21.05;52.97;101631.47;4686333;30;20046;-87
2021/09/14 04:58:09;;;;;;;4.70;2.70;;;;;;;21.04;52.76;101626.28;4686362;30;20501;-87
2021/09/14 05:00:34;;;;;;;4.63;2.33;;;;;;;21.04;52.99;101631.53;4700478;30;20045;-89
2021/09/14 05:02:59;;;;;;;4.85;2.72;;;;;;;20.99;53.04;101618.50;4686055;30;20392;-87
2021/09/14 05:05:25;;;;;;;5.07;2.70;;;;;;;20.98;52.92;101623.72;4700491;30;20057;-87
2021/09/14 05:07:50;;;;;;;5.43;2.60;;;;;;;21.00;53.00;101612.34;4685934;30;20048;-89
2021/09/14 05:10:15;;;;;;;6.38;3.50;;;;;;;21.00;52.67;101619.34;4715179;30;20458;-85
2021/09/14 05:12:41;;;;;;;4.90;3.28;;;;;;;20.96;53.33;101623.75;4703324;30;20045;-83
2021/09/14 05:15:07;;;;;;;7.88;3.72;;;;;;;20.97;53.05;101622.88;4702907;30;20513;-84
2021/09/14 05:17:32;;;;;;;15.55;4.40;;;;;;;21.20;53.11;101625.19;4688864;30;20037;-89
2021/09/14 05:19:59;;;;;;;13.88;4.95;;;;;;;21.34;53.06;101617.19;4719490;30;20040;-88
2021/09/14 05:22:31;;;;;;;10.45;3.75;;;;;;;21.42;52.85;101617.97;4738977;30;20028;-90
2021/09/14 05:24:56;;;;;;;7.97;3.20;;;;;;;21.50;52.72;101637.06;4725836;30;20090;-89
2021/09/14 05:27:25;;;;;;;8.60;3.75;;;;;;;21.53;52.77;101631.78;4738595;30;20036;-88
2021/09/14 05:29:50;;;;;;;9.88;3.90;;;;;;;21.55;52.73;101630.00;4738673;30;20087;-89
2021/09/14 05:32:30;;;;;;;;;;;;;;;;;;;;;
2021/09/14 05:34:55;;;;;;;8.00;3.80;;;;;;;21.57;52.68;101622.13;4754656;30;20050;-89
2021/09/14 05:37:21;;;;;;;10.98;3.85;;;;;;;21.59;52.41;101622.13;4724091;30;20388;-89
2021/09/14 05:39:47;;;;;;;9.65;4.32;;;;;;;21.58;52.27;101623.88;4708666;30;20036;-89
2021/09/14 05:42:12;;;;;;;11.90;3.85;;;;;;;21.60;51.95;101619.50;4738801;30;20036;-89
2021/09/14 05:44:38;;;;;;;10.25;3.88;;;;;;;21.61;51.93;101620.34;4738845;30;20059;-90
2021/09/14 05:47:04;;;;;;;8.32;3.40;;;;;;;21.62;52.12;101622.06;4709611;30;20577;-90
2021/09/14 05:49:30;;;;;;;8.05;3.63;;;;;;;21.63;51.85;101622.06;4725393;30;20097;-90
2021/09/14 05:51:58;;;;;;;7.32;3.38;;;;;;;21.64;51.86;101618.53;4725065;30;20036;-88
2021/09/14 05:54:24;;;;;;;8.75;3.80;;;;;;;21.65;51.67;101622.06;4740679;30;20067;-85
2021/09/14 05:56:49;;;;;;;7.57;3.70;;;;;;;21.66;51.60;101626.38;4710032;30;20064;-93
2021/09/14 05:59:15;;;;;;;8.30;3.20;;;;;;;21.66;51.53;101622.00;4709951;30;20119;-88
2021/09/14 06:01:40;;;;;;;8.40;3.55;;;;;;;21.69;51.43;101618.50;4738652;30;20044;-90
2021/09/14 06:04:05;;;;;;;8.38;3.13;;;;;;;21.69;51.25;101614.13;4724443;30;20480;-91
2021/09/14 06:06:31;;;;;;;5.90;2.88;;;;;;;21.70;51.76;101607.97;4739806;30;20036;-88
2021/09/14 06:08:56;;;;;;;7.45;3.58;;;;;;;21.70;51.33;101604.50;4726650;30;20127;-88
2021/09/14 06:11:22;;;;;;;7.00;2.88;;;;;;;21.69;51.37;101597.53;4742825;30;20044;-86
2021/09/14 06:13:47;;;;;;;6.65;3.00;;;;;;;21.71;51.30;101594.00;4756944;30;20040;-90
2021/09/14 06:16:13;;;;;;;7.93;2.83;;;;;;;21.71;51.56;101591.38;4739670;30;20074;-88
2021/09/14 06:18:39;;;;;;;8.15;2.85;;;;;;;21.72;51.37;101589.63;4740845;30;20028;-87
2021/09/14 06:21:05;;;;;;;5.93;2.90;;;;;;;21.75;51.17;101590.47;4741067;30;20173;-88
2021/09/14 06:23:30;;;;;;;5.03;2.53;;;;;;;21.76;51.29;101589.56;4741340;30;20040;-86
2021/09/14 06:25:58;;;;;;;7.65;3.17;;;;;;;21.72;51.26;101574.78;4757957;30;20605;-87
2021/09/14 06:28:24;;;;;;;7.03;3.10;;;;;;;21.71;51.43;101580.91;4756689;30;20032;-89
2021/09/14 06:30:49;;;;;;;7.22;3.10;;;;;;;21.69;51.32;101581.81;4719705;30;20074;-88
2021/09/14 06:33:14;;;;;;;4.78;2.67;;;;;;;21.72;51.33;101587.00;4721667;30;20060;-88
2021/09/14 06:35:40;;;;;;;7.85;3.53;;;;;;;21.70;51.38;101592.25;4723211;30;20558;-88
2021/09/14 06:38:06;;;;;;;4.75;2.80;;;;;;;21.72;51.37;101587.88;4722433;30;20095;-89
2021/09/14 06:40:32;;;;;;;5.95;2.80;;;;;;;21.73;51.38;101583.50;4722429;30;20037;-89
2021/09/14 06:42:58;;;;;;;6.88;2.55;;;;;;;21.73;51.29;101583.50;4736300;30;20033;-90
2021/09/14 06:45:23;;;;;;;5.45;2.67;;;;;;;21.72;51.22;101587.88;4720097;30;20094;-90
2021/09/14 06:47:49;;;;;;;5.72;3.00;;;;;;;21.75;50.84;101587.84;4723615;30;20033;-90
2021/09/14 06:50:14;;;;;;;5.38;2.47;;;;;;;21.77;51.10;101593.94;4700762;30;20476;-89
2021/09/14 06:52:40;;;;;;;4.32;2.72;;;;;;;21.76;51.24;101592.19;4709638;30;20037;-90
2021/09/14 06:55:07;;;;;;;4.85;2.70;;;;;;;21.75;51.12;101593.09;4706343;30;20074;-89
2021/09/14 06:57:33;;;;;;;4.30;2.58;;;;;;;21.80;51.07;101595.63;4705584;30;20123;-88
2021/09/14 06:59:59;;;;;;;3.72;2.40;;;;;;;21.82;51.19;101591.22;4719880;30;20112;-89
2021/09/14 07:02:25;;;;;;;4.82;2.50;;;;;;;21.87;50.84;101583.28;4719625;30;20056;-87
2021/09/14 07:04:50;;;;;;;4.75;3.13;;;;;;;21.88;50.93;101595.50;4719943;30;20041;-87
2021/09/14 07:07:16;;;;;;;4.53;2.53;;;;;;;21.93;50.64;101596.31;4720427;30;20511;-89
2021/09/14 07:09:41;;;;;;;7.40;3.35;;;;;;;21.96;50.80;101601.47;4719851;30;20342;-89
2021/09/14 07:12:07;;;;;;;5.47;2.78;;;;;;;21.99;50.85;101593.56;4719784;30;20037;-89
2021/09/14 07:14:33;;;;;;;5.65;3.17;;;;;;;22.04;50.31;101588.28;4704980;30;20047;-89
2021/09/14 07:16:58;;;;;;;4.32;2.60;;;;;;;22.08;50.57;101587.31;4705404;30;20029;-88
2021/09/14 07:19:23;;;;;;;4.35;2.70;;;;;;;22.13;50.08;101588.13;4735299;30;20029;-88
2021/09/14 07:21:49;;;;;;;4.85;3.00;;;;;;;22.18;50.10;101581.03;4705157;30;20032;-89
2021/09/14 07:24:14;;;;;;;5.25;2.63;;;;;;;22.21;50.03;101580.09;4719345;30;20029;-87
2021/09/14 07:26:39;;;;;;;4.93;2.80;;;;;;;22.18;50.21;101583.66;4704965;30;20033;-88
2021/09/14 07:29:06;;;;;;;4.10;2.60;;;;;;;22.12;50.24;101582.00;4704982;30;20126;-88
2021/09/14 07:31:33;;;;;;;5.57;2.33;;;;;;;22.07;50.41;101582.97;4708898;30;20504;-89
2021/09/14 07:33:58;;;;;;;4.10;2.25;;;;;;;22.07;50.54;101586.44;4736843;30;20484;-87
2021/09/14 07:36:23;;;;;;;5.03;2.50;;;;;;;22.05;50.32;101588.22;4722232;30;20093;-88
2021/09/14 07:38:49;;;;;;;5.25;2.90;;;;;;;22.01;50.40;101586.53;4722348;30;20040;-88
2021/09/14 07:41:14;;;;;;;4.38;2.40;;;;;;;22.06;50.72;101596.94;4722238;30;20182;-87
2021/09/14 07:43:40;;;;;;;3.95;2.60;;;;;;;22.11;50.53;101590.75;4736894;30;20036;-88
2021/09/14 07:46:09;;;;;;;5.68;2.58;;;;;;;22.07;50.57;101578.59;4737069;30;20083;-83
2021/09/14 07:48:35;;;;;;;4.18;2.60;;;;;;;22.07;50.66;101567.25;4708315;30;20036;-85
2021/09/14 07:51:00;;;;;;;4.28;2.40;;;;;;;22.11;50.54;101567.16;4736776;30;20488;-86
2021/09/14 07:53:26;;;;;;;4.28;2.47;;;;;;;22.08;50.37;101575.09;4736799;30;20047;-86
2021/09/14 07:55:51;;;;;;;5.05;2.30;;;;;;;22.16;50.31;101574.94;4736543;30;20439;-86
2021/09/14 07:58:16;;;;;;;3.78;2.50;;;;;;;22.21;49.84;101567.00;4736866;30;20036;-86
2021/09/14 08:00:42;;;;;;;3.38;2.05;;;;;;;22.23;50.27;101576.59;4721962;30;20491;-86
2021/09/14 08:03:07;;;;;;;4.72;2.00;;;;;;;22.26;50.11;101576.56;4738148;30;20044;-86
2021/09/14 08:05:37;;;;;;;4.57;2.15;;;;;;;22.27;50.14;101573.03;4725361;30;20043;-86
2021/09/14 08:08:02;;;;;;;2.45;1.98;;;;;;;22.27;50.50;101566.94;4725600;30;20123;-86
2021/09/14 08:10:28;;;;;;;3.90;2.53;;;;;;;22.26;50.22;101559.97;4739964;30;20185;-89
2021/09/14 08:12:53;;;;;;;3.50;2.47;;;;;;;22.26;50.38;101559.97;4725353;30;20040;-89
2021/09/14 08:15:18;;;;;;;4.78;2.78;;;;;;;22.26;50.18;101550.34;4739908;30;20394;-89
2021/09/14 08:17:44;;;;;;;3.22;2.22;;;;;;;22.28;50.45;101551.19;4725480;30;20047;-89
2021/09/14 08:20:09;;;;;;;3.25;2.10;;;;;;;22.31;50.26;101558.97;4725685;30;20048;-89
2021/09/14 08:23:00;;;;;;;2.92;2.20;;;;;;;22.32;50.12;101560.72;4711154;30;20117;-87
2021/09/14 08:25:31;;;;;;;2.90;2.20;;;;;;;22.29;50.20;101565.16;4743120;30;20044;-89
2021/09/14 08:27:58;;;;;;;2.90;2.22;;;;;;;22.25;50.07;101559.06;4740776;30;20039;-88
2021/09/14 08:30:23;;;;;;;4.70;2.83;;;;;;;22.22;50.31;101567.00;4755797;30;20484;-89
2021/09/14 08:32:50;;;;;;;4.07;2.75;;;;;;;22.19;50.56;101559.19;4726355;30;20055;-90
2021/09/14 08:35:16;;;;;;;4.47;2.60;;;;;;;22.20;50.26;101563.50;4693753;30;20047;-88
2021/09/14 08:37:41;;;;;;;3.40;2.20;;;;;;;22.19;50.50;101567.91;4707637;30;20119;-89
2021/09/14 08:40:07;;;;;;;6.90;2.35;;;;;;;22.22;50.06;101584.47;4707412;30;20060;-89
2021/09/14 08:42:35;;;;;;;4.10;2.50;;;;;;;22.25;50.24;101574.81;4707610;30;20460;-89
2021/09/14 08:45:03;;;;;;;3.80;2.50;;;;;;;22.27;49.93;101578.28;4721844;30;20171;-89
2021/09/14 08:47:29;;;;;;;3.70;2.58;;;;;;;22.24;49.81;101586.19;4722161;30;20124;-89
2021/09/14 08:49:54;;;;;;;3.75;2.65;;;;;;;22.21;49.91;101588.84;4721960;30;20029;-89
2021/09/14 08:52:19;;;;;;;3.20;2.38;;;;;;;22.23;49.92;101588.84;4721923;30;20036;-89
2021/09/14 08:54:45;;;;;;;3.90;2.70;;;;;;;22.21;49.76;101575.75;4692906;30;20136;-89
2021/09/14 08:57:10;;;;;;;5.30;2.33;;;;;;;22.22;49.91;101582.75;4721744;30;20115;-88
2021/09/14 08:59:36;;;;;;;4.07;2.40;;;;;;;22.22;49.63;101584.47;4693296;30;20056;-89
2021/09/14 09:02:05;;;;;;;4.18;2.80;;;;;;;22.21;49.49;101574.84;4707519;30;20102;-89
2021/09/14 09:04:32;;;;;;;5.75;2.88;;;;;;;22.19;49.38;101580.16;4707347;30;20123;-89
2021/09/14 09:06:58;;;;;;;4.05;2.63;;;;;;;22.19;49.68;101578.38;4721650;30;20035;-88
2021/09/14 09:09:26;;;;;;;5.05;3.08;;;;;;;22.21;49.39;101582.72;4722370;30;20119;-89
2021/09/14 09:12:10;;;;;;;2.78;2.38;;;;;;;22.19;49.39;101582.78;4707587;30;20087;-89
2021/09/14 09:14:40;;;;;;;4.70;3.05;;;;;;;22.17;49.55;101580.16;4737445;30;20090;-89
2021/09/14 09:17:10;;;;;;;3.45;2.58;;;;;;;22.19;49.81;101570.53;4737647;30;20029;-88
2021/09/14 09:19:36;;;;;;;3.95;2.83;;;;;;;22.19;49.72;101581.00;4708022;30;20511;-89
2021/09/14 09:22:03;;;;;;;5.05;2.65;;;;;;;22.21;49.49;101581.00;4709294;30;20067;-89
2021/09/14 09:24:28;;;;;;;3.97;2.95;;;;;;;22.21;49.40;101581.00;4742095;30;20083;-88
2021/09/14 09:26:54;;;;;;;3.97;2.95;;;;;;;22.21;49.37;101570.50;4725815;30;20481;-89
2021/09/14 09:29:29;;;;;;;3.85;2.70;;;;;;;22.23;49.51;101565.25;4726932;30;20044;-89
2021/09/14 09:32:00;;;;;;;3.33;2.60;;;;;;;22.21;49.37;101562.63;4730474;30;20048;-89
2021/09/14 09:34:29;;;;;;;3.30;2.80;;;;;;;22.22;49.42;101563.50;4726779;30;20101;-88
2021/09/14 09:37:09;;;;;;;5.18;3.00;;;;;;;22.24;49.33;101567.00;4740470;30;20085;-88
2021/09/14 09:39:44;;;;;;;5.43;3.00;;;;;;;22.22;49.69;101574.88;4740228;30;20028;-88
2021/09/14 09:42:10;;;;;;;5.03;3.28;;;;;;;22.24;49.66;101582.72;4740609;30;20493;-88
2021/09/14 09:44:37;;;;;;;4.78;2.78;;;;;;;22.22;49.33;101564.38;4740005;30;20052;-88
2021/09/14 09:47:03;;;;;;;4.78;2.80;;;;;;;22.21;49.62;101548.66;4739728;30;20032;-88
2021/09/14 09:49:29;;;;;;;3.78;2.80;;;;;;;22.21;49.66;101552.16;4739566;30;20093;-89
2021/09/14 09:51:57;;;;;;;3.70;2.90;;;;;;;22.21;49.52;101559.13;4738405;30;20079;-89
2021/09/14 09:54:23;;;;;;;3.92;2.72;;;;;;;22.23;49.83;101560.84;4738431;30;20061;-90
2021/09/14 09:56:49;;;;;;;3.28;2.55;;;;;;;22.23;49.79;101554.75;4738334;30;20479;-88
2021/09/14 09:59:16;;;;;;;3.30;2.45;;;;;;;22.24;49.44;101551.25;4754557;30;20043;-89
2021/09/14 10:01:42;;;;;;;4.35;2.92;;;;;;;22.22;49.46;101540.78;4738154;30;20039;-91
2021/09/14 10:04:17;;;;;;;4.15;2.58;;;;;;;22.23;49.59;101545.13;4738183;30;20043;-89
2021/09/14 10:06:52;;;;;;;6.50;3.00;;;;;;;22.25;49.60;101538.09;4738082;30;20032;-90
2021/09/14 10:09:18;;;;;;;3.65;2.70;;;;;;;22.24;49.55;101546.03;4723698;30;20032;-89
2021/09/14 10:11:54;;;;;;;5.00;2.88;;;;;;;22.24;49.74;101551.25;4723385;30;20040;-89
2021/09/14 10:14:19;;;;;;;3.40;2.88;;;;;;;22.23;49.44;101547.75;4723816;30;20055;-89
2021/09/14 10:16:45;;;;;;;4.82;2.92;;;;;;;22.24;49.79;101556.50;4737926;30;20063;-89
2021/09/14 10:19:25;;;;;;;4.38;3.67;;;;;;;22.21;49.72;101546.03;4738791;30;20032;-89
2021/09/14 10:22:06;;;;;;;4.47;3.08;;;;;;;22.24;49.81;101541.63;4738892;30;20040;-89
2021/09/14 10:24:33;;;;;;;6.60;3.85;;;;;;;22.21;49.71;101538.16;4738806;30;20067;-89
2021/09/14 10:27:17;;;;;;;3.83;2.80;;;;;;;22.21;49.62;101525.06;4722857;30;20453;-87
2021/09/14 10:29:44;;;;;;;4.57;3.20;;;;;;;22.22;49.64;101524.19;4737791;30;20036;-87
2021/09/14 10:32:14;;;;;;;5.30;3.67;;;;;;;22.21;49.69;101518.06;4729306;30;20056;-89
2021/09/14 10:34:55;;;;;;;4.20;3.20;;;;;;;22.21;50.19;101509.31;4720736;30;20036;-88
2021/09/14 10:37:28;;;;;;;5.50;4.20;;;;;;;22.21;49.78;101510.22;4720078;30;20029;-89
2021/09/14 10:39:54;;;;;;;5.55;4.00;;;;;;;22.19;49.86;101509.38;4720291;30;20112;-88
2021/09/14 10:42:21;;;;;;;4.22;3.33;;;;;;;22.22;49.61;101517.19;4720045;30;20048;-88
2021/09/14 10:44:48;;;;;;;5.38;3.80;;;;;;;22.23;49.92;101521.53;4719877;30;20103;-89
2021/09/14 10:47:17;;;;;;;5.10;3.45;;;;;;;22.23;49.90;101525.91;4719853;30;20102;-88
2021/09/14 10:49:54;;;;;;;5.20;3.95;;;;;;;22.21;50.11;101515.44;4719949;30;20062;-88
2021/09/14 10:52:38;;;;;;;8.35;3.80;;;;;;;22.22;49.68;101519.81;4719911;30;20485;-89
2021/09/14 10:55:15;;;;;;;4.65;3.63;;;;;;;22.23;49.63;101516.28;4719941;30;20040;-88
2021/09/14 10:57:43;;;;;;;3.53;3.22;;;;;;;22.22;49.98;101509.34;4719885;30;20033;-87
2021/09/14 11:00:12;;;;;;;4.72;3.35;;;;;;;22.22;49.80;101505.81;4720013;30;20041;-90
2021/09/14 11:02:38;;;;;;;4.40;3.60;;;;;;;22.23;49.76;101520.69;4719868;30;20629;-90
2021/09/14 11:05:08;;;;;;;4.50;3.13;;;;;;;22.22;50.09;101511.97;4705300;30;20131;-90
2021/09/14 11:07:34;;;;;;;3.83;2.90;;;;;;;22.25;50.17;101511.88;4719979;30;20032;-90
2021/09/14 11:10:07;;;;;;;4.88;2.58;;;;;;;22.25;50.08;101503.16;4720013;30;20032;-88
2021/09/14 11:12:33;;;;;;;3.55;3.00;;;;;;;22.25;50.16;101506.63;4720861;30;20067;-90
2021/09/14 11:14:59;;;;;;;4.05;2.80;;;;;;;22.26;50.24;101500.53;4705220;30;20134;-89
2021/09/14 11:17:28;;;;;;;3.42;2.70;;;;;;;22.30;50.13;101503.97;4691296;30;20064;-89
2021/09/14 11:19:54;;;;;;;6.70;3.15;;;;;;;22.30;49.98;101498.72;4720216;30;20033;-88
2021/09/14 11:22:30;;;;;;;6.68;3.30;;;;;;;22.29;50.13;101496.97;4720473;30;20132;-88
2021/09/14 11:24:56;;;;;;;3.08;2.67;;;;;;;22.27;50.16;101490.88;4725602;30;20040;-89
2021/09/14 11:27:22;;;;;;;3.92;2.80;;;;;;;22.30;49.97;101488.22;4725505;30;20447;-83
2021/09/14 11:29:48;;;;;;;2.95;2.40;;;;;;;22.29;50.27;101489.97;4722177;30;20087;-84
2021/09/14 11:32:14;;;;;;;3.30;2.90;;;;;;;22.31;50.08;101488.19;4744703;30;20060;-83
2021/09/14 11:34:40;;;;;;;3.42;2.88;;;;;;;22.30;50.01;101490.84;4723968;30;20104;-84
2021/09/14 11:37:05;;;;;;;2.75;2.35;;;;;;;22.28;50.35;101480.38;4739052;30;20081;-84
2021/09/14 11:39:38;;;;;;;2.80;2.40;;;;;;;22.30;50.44;101469.88;4742212;30;20071;-83
2021/09/14 11:42:07;;;;;;;4.15;2.60;;;;;;;22.31;50.18;101475.06;4726782;30;20400;-82
2021/09/14 11:44:33;;;;;;;3.38;2.60;;;;;;;22.29;50.14;101463.75;4726365;30;20127;-83
2021/09/14 11:47:09;;;;;;;4.60;2.95;;;;;;;22.30;50.32;101468.13;4742448;30;20131;-83
2021/09/14 11:49:34;;;;;;;3.50;3.20;;;;;;;22.30;50.66;101467.25;4742229;30;20040;-85
2021/09/14 11:52:02;;;;;;;4.28;3.25;;;;;;;22.32;50.17;101454.94;4741776;30;20097;-82
2021/09/14 11:54:35;;;;;;;3.92;3.42;;;;;;;22.32;50.11;101454.94;4740640;30;20062;-82
2021/09/14 11:57:02;;;;;;;3.67;3.00;;;;;;;22.31;49.96;101456.72;4742333;30;20039;-85
2021/09/14 11:59:39;;;;;;;5.03;3.58;;;;;;;22.31;50.08;101454.09;4749781;30;20036;-84
2021/09/14 12:02:05;;;;;;;3.85;3.05;;;;;;;22.31;50.29;101451.47;4752199;30;20062;-82
2021/09/14 12:04:30;;;;;;;5.20;3.22;;;;;;;22.32;50.03;101452.31;4739572;30;20476;-84
2021/09/14 12:07:00;;;;;;;3.80;3.08;;;;;;;22.35;50.12;101454.91;4726121;30;20036;-84
2021/09/14 12:09:28;;;;;;;4.00;3.08;;;;;;;22.32;49.97;101455.84;4756319;30;20070;-84
2021/09/14 12:12:02;;;;;;;4.53;3.35;;;;;;;22.34;50.19;101451.44;4740092;30;20036;-84
2021/09/14 12:14:28;;;;;;;4.18;3.67;;;;;;;22.38;50.16;101447.84;4755594;30;20039;-84
2021/09/14 12:17:04;;;;;;;3.50;3.20;;;;;;;22.36;50.14;101436.53;4740243;30;20109;-85
2021/09/14 12:19:31;;;;;;;5.20;3.15;;;;;;;22.36;50.12;101443.50;4740040;30;20460;-84
2021/09/14 12:21:57;;;;;;;4.53;3.58;;;;;;;22.38;50.38;101441.72;4739855;30;20047;-84
2021/09/14 12:24:22;;;;;;;4.82;3.42;;;;;;;22.37;50.27;101433.00;4739943;30;20123;-89
2021/09/14 12:26:51;;;;;;;4.75;3.53;;;;;;;22.39;50.31;101422.50;4739683;30;20066;-84
2021/09/14 12:29:19;;;;;;;3.65;3.00;;;;;;;22.35;50.34;101416.44;4755727;30;20060;-85
2021/09/14 12:31:46;;;;;;;3.97;3.28;;;;;;;22.42;50.10;101421.56;4739469;30;20060;-82
2021/09/14 12:34:15;;;;;;;3.72;3.17;;;;;;;22.38;50.32;101418.13;4739819;30;20036;-82
2021/09/14 12:36:42;;;;;;;4.10;3.45;;;;;;;22.40;50.34;101418.97;4725401;30;20086;-84